Hebron, South Carolina
Current Conditions -  °F | °C
As of 12:53 AM on Thursday 27 Nov 2014 (Local Time) from KFLO Reporting Station
Clear Clear  
Wind Chill: 38°   Ceiling: Unl
Heat Index: 42°   Visibility: 10mi
Dew Point: 41°   Wind: 6mph
Humidity: 96%   Direction: 200°SSW
Pressure: 30.07"   Gusts: NA
Location:  33.8014°N, 79.8006°W
Report Text: KFLO 270553Z AUTO 20005KT 10SM CLR 06/05 A3007 RMK AO2 SLP182 T00560050 10072 20039 58005
Loading
Personal Weather Stations






























Interactive Weather Map New forecast layout! Learn more

10-Day Weather Forecast

Advertisements
Track Severe Weather on mobile